Time;durP1;ratioP1;P1;durP2;ratioP2;P2;SDS_P1;SDS_P2;PMS_P1;PMS_P2;Temp;Humidity;BMP_temperature;BMP_pressure;BME280_temperature;BME280_humidity;BME280_pressure;Samples;Min_cycle;Max_cycle;Signal;HPM_P1;HPM_P2
2023/12/14 00:01:50;;;;;;;;;;;;;;;;;;5117266;27;20390;-77
2023/12/14 00:04:19;;;;;;;;;;;;;;;;;;5132837;27;19919;-77
2023/12/14 00:06:54;;;;;;;;;;;;;;;;;;5133190;27;19974;-77
2023/12/14 00:09:22;;;;;;;;;;;;;;;;;;5097146;27;19967;-76
2023/12/14 00:11:49;;;;;;;;;;;;;;;;;;5132631;27;19919;-77
2023/12/14 00:14:21;;;;;;;;;;;;;;;;;;5115080;27;20396;-77
2023/12/14 00:16:47;;;;;;;;;;;;;;;;;;5114395;27;19965;-77
2023/12/14 00:19:25;;;;;;;;;;;;;;;;;;5133134;27;19926;-77
2023/12/14 00:22:12;;;;;;;;;;;;;;;;;;5096355;27;20009;-77
2023/12/14 00:24:46;;;;;;;;;;;;;;;;;;5131330;27;19923;-76
2023/12/14 00:27:24;;;;;;;;;;;;;;;;;;5131621;27;19967;-79
2023/12/14 00:29:53;;;;;;;;;;;;;;;;;;5131666;27;20006;-76
2023/12/14 00:32:21;;;;;;;;;;;;;;;;;;5132329;27;19919;-77
2023/12/14 00:34:49;;;;;;;;;;;;;;;;;;5132510;27;19926;-77
2023/12/14 00:37:37;;;;;;;;;;;;;;;;;;5132744;27;19953;-76
2023/12/14 00:40:17;;;;;;;;;;;;;;;;;;5132895;27;19959;-76
2023/12/14 00:42:47;;;;;;;;;;;;;;;;;;5112738;27;19919;-76
2023/12/14 00:45:22;;;;;;;;;;;;;;;;;;5148148;27;19968;-78
2023/12/14 00:47:54;;;;;;;;;;;;;;;;;;5146649;27;19962;-77
2023/12/14 00:50:21;;;;;;;;;;;;;;;;;;5110052;28;20285;-77
2023/12/14 00:52:54;;;;;;;;;;;;;;;;;;5131176;27;19923;-76
2023/12/14 00:55:20;;;;;;;;;;;;;;;;;;5114212;28;20376;-80
2023/12/14 00:57:47;;;;;;;;;;;;;;;;;;5132067;27;19934;-76
2023/12/14 01:00:16;;;;;;;;;;;;;;;;;;5147074;27;20383;-77
2023/12/14 01:02:43;;;;;;;;;;;;;;;;;;5132380;27;19963;-77
2023/12/14 01:05:30;;;;;;;;;;;;;;;;;;5131555;27;19923;-77
2023/12/14 01:08:05;;;;;;;;;;;;;;;;;;5131305;28;19966;-77
2023/12/14 01:10:32;;;;;;;;;;;;;;;;;;5128918;28;19919;-77
2023/12/14 01:13:04;;;;;;;;;;;;;;;;;;5144953;27;19975;-76
2023/12/14 01:15:36;;;;;;;;;;;;;;;;;;5151325;27;19962;-76
2023/12/14 01:18:17;;;;;;;;;;;;;;;;;;5136920;27;19926;-77
2023/12/14 01:20:48;;;;;;;;;;;;;;;;;;5135220;27;19966;-77
2023/12/14 01:23:17;;;;;;;;;;;;;;;;;;5118332;27;19919;-77
2023/12/14 01:25:51;;;;;;;;;;;;;;;;;;5151172;27;19964;-76
2023/12/14 01:28:21;;;;;;;;;;;;;;;;;;5135986;27;19979;-77
2023/12/14 01:30:49;;;;;;;;;;;;;;;;;;5118688;27;20022;-76
2023/12/14 01:33:21;;;;;;;;;;;;;;;;;;5135192;27;19926;-77
2023/12/14 01:35:48;;;;;;;;;;;;;;;;;;5117838;27;19998;-76
2023/12/14 01:38:15;;;;;;;;;;;;;;;;;;5118687;27;19959;-76
2023/12/14 01:40:42;;;;;;;;;;;;;;;;;;5117558;27;20479;-76
2023/12/14 01:43:26;;;;;;;;;;;;;;;;;;5150430;27;20011;-77
2023/12/14 01:46:04;;;;;;;;;;;;;;;;;;5118097;27;19923;-77
2023/12/14 01:48:35;;;;;;;;;;;;;;;;;;5117445;27;19979;-76
2023/12/14 01:51:15;;;;;;;;;;;;;;;;;;5117734;27;19973;-77
2023/12/14 01:53:50;;;;;;;;;;;;;;;;;;5132983;27;19972;-77
2023/12/14 01:56:17;;;;;;;;;;;;;;;;;;5106281;27;19971;-77
2023/12/14 01:58:55;;;;;;;;;;;;;;;;;;5081990;27;19919;-77
2023/12/14 02:01:39;;;;;;;;;;;;;;;;;;5145207;27;19984;-79
2023/12/14 02:04:22;;;;;;;;;;;;;;;;;;5072438;28;19920;-77
2023/12/14 02:06:48;;;;;;;;;;;;;;;;;;5071889;28;19921;-77
2023/12/14 02:09:25;;;;;;;;;;;;;;;;;;5070610;28;19975;-77
2023/12/14 02:12:11;;;;;;;;;;;;;;;;;;5071452;28;19988;-77
2023/12/14 02:14:42;;;;;;;;;;;;;;;;;;5085984;28;20018;-77
2023/12/14 02:17:10;;;;;;;;;;;;;;;;;;5086661;28;20010;-77
2023/12/14 02:19:39;;;;;;;;;;;;;;;;;;5068395;28;20447;-77
2023/12/14 02:22:12;;;;;;;;;;;;;;;;;;5071799;28;19920;-77
2023/12/14 02:24:42;;;;;;;;;;;;;;;;;;5064625;28;19920;-77
2023/12/14 02:27:11;;;;;;;;;;;;;;;;;;5070700;28;19955;-77
2023/12/14 02:29:41;;;;;;;;;;;;;;;;;;5071734;28;19921;-77
2023/12/14 02:32:10;;;;;;;;;;;;;;;;;;5069429;28;20046;-78
2023/12/14 02:34:41;;;;;;;;;;;;;;;;;;5067626;28;19936;-77
2023/12/14 02:37:28;;;;;;;;;;;;;;;;;;5071876;28;19947;-77
2023/12/14 02:40:17;;;;;;;;;;;;;;;;;;5071808;28;19921;-77
2023/12/14 02:42:52;;;;;;;;;;;;;;;;;;5146414;27;19929;-77
2023/12/14 02:45:40;;;;;;;;;;;;;;;;;;5130833;27;19919;-80
2023/12/14 02:48:06;;;;;;;;;;;;;;;;;;5116478;27;19973;-77
2023/12/14 02:50:33;;;;;;;;;;;;;;;;;;5126892;27;20268;-79
2023/12/14 02:52:58;;;;;;;;;;;;;;;;;;5148329;27;19923;-79
2023/12/14 02:55:38;;;;;;;;;;;;;;;;;;5131441;27;19945;-79
2023/12/14 02:58:30;;;;;;;;;;;;;;;;;;5133923;27;19920;-76
2023/12/14 03:01:02;;;;;;;;;;;;;;;;;;5150123;27;19927;-77
2023/12/14 03:03:35;;;;;;;;;;;;;;;;;;5132971;27;19926;-77
2023/12/14 03:06:16;;;;;;;;;;;;;;;;;;5134758;27;19926;-77
2023/12/14 03:08:45;;;;;;;;;;;;;;;;;;5134062;27;20014;-77
2023/12/14 03:11:24;;;;;;;;;;;;;;;;;;5116638;27;19926;-77
2023/12/14 03:13:54;;;;;;;;;;;;;;;;;;5133636;27;20003;-77
2023/12/14 03:16:20;;;;;;;;;;;;;;;;;;5116537;27;20018;-76
2023/12/14 03:19:05;;;;;;;;;;;;;;;;;;5030212;28;19925;-77
2023/12/14 03:21:32;;;;;;;;;;;;;;;;;;5083097;27;19919;-76
2023/12/14 03:24:07;;;;;;;;;;;;;;;;;;5115758;27;19965;-77
2023/12/14 03:26:37;;;;;;;;;;;;;;;;;;5149873;27;20010;-80
2023/12/14 03:29:34;;;;;;;;;;;;;;;;;;5080508;27;19945;-77
2023/12/14 03:32:06;;;;;;;;;;;;;;;;;;5114432;27;19923;-77
2023/12/14 03:34:49;;;;;;;;;;;;;;;;;;5119347;27;19927;-78
2023/12/14 03:37:29;;;;;;;;;;;;;;;;;;5114119;27;19919;-78
2023/12/14 03:39:56;;;;;;;;;;;;;;;;;;5111107;27;19954;-78
2023/12/14 03:42:40;;;;;;;;;;;;;;;;;;5132756;27;19923;-77
2023/12/14 03:45:19;;;;;;;;;;;;;;;;;;5081144;27;19988;-79
2023/12/14 03:47:49;;;;;;;;;;;;;;;;;;5132401;27;19926;-77
2023/12/14 03:50:36;;;;;;;;;;;;;;;;;;5134220;27;19927;-78
2023/12/14 03:53:12;;;;;;;;;;;;;;;;;;5109212;28;19927;-78
2023/12/14 03:55:44;;;;;;;;;;;;;;;;;;5112335;28;19931;-79
2023/12/14 03:58:12;;;;;;;;;;;;;;;;;;5109786;28;19927;-78
2023/12/14 04:00:46;;;;;;;;;;;;;;;;;;5113214;28;20291;-78
2023/12/14 04:03:15;;;;;;;;;;;;;;;;;;5112596;28;20022;-78
2023/12/14 04:05:50;;;;;;;;;;;;;;;;;;5107118;28;19927;-77
2023/12/14 04:08:30;;;;;;;;;;;;;;;;;;5092828;28;19967;-78
2023/12/14 04:11:00;;;;;;;;;;;;;;;;;;5094686;28;20018;-78
2023/12/14 04:13:27;;;;;;;;;;;;;;;;;;5102581;28;20432;-78
2023/12/14 04:16:03;;;;;;;;;;;;;;;;;;5103355;28;19945;-78
2023/12/14 04:19:10;;;;;;;;;;;;;;;;;;5107179;28;20010;-79
2023/12/14 04:22:06;;;;;;;;;;;;;;;;;;5112051;28;19926;-77
2023/12/14 04:24:38;;;;;;;;;;;;;;;;;;5144812;27;19973;-77
2023/12/14 04:27:16;;;;;;;;;;;;;;;;;;5127371;27;20054;-78
2023/12/14 04:29:43;;;;;;;;;;;;;;;;;;5128560;27;19919;-81
2023/12/14 04:32:30;;;;;;;;;;;;;;;;;;5112208;28;20411;-78
2023/12/14 04:34:56;;;;;;;;;;;;;;;;;;5127675;27;19923;-78
2023/12/14 04:37:30;;;;;;;;;;;;;;;;;;5109711;28;20346;-78
2023/12/14 04:40:05;;;;;;;;;;;;;;;;;;5141551;27;19919;-78
2023/12/14 04:42:32;;;;;;;;;;;;;;;;;;5111120;28;19920;-78
2023/12/14 04:45:05;;;;;;;;;;;;;;;;;;5111019;28;20001;-78
2023/12/14 04:47:40;;;;;;;;;;;;;;;;;;5109826;28;19928;-77
2023/12/14 04:50:10;;;;;;;;;;;;;;;;;;5111545;28;20320;-78
2023/12/14 04:52:54;;;;;;;;;;;;;;;;;;5114111;27;20403;-78
2023/12/14 04:55:45;;;;;;;;;;;;;;;;;;5076615;28;19927;-78
2023/12/14 04:58:13;;;;;;;;;;;;;;;;;;5092443;28;19920;-78
2023/12/14 05:01:02;;;;;;;;;;;;;;;;;;5111476;28;19919;-78
2023/12/14 05:03:46;;;;;;;;;;;;;;;;;;5111246;28;19919;-78
2023/12/14 05:06:18;;;;;;;;;;;;;;;;;;5111714;28;19920;-78
2023/12/14 05:09:05;;;;;;;;;;;;;;;;;;5111657;28;19927;-78
2023/12/14 05:11:50;;;;;;;;;;;;;;;;;;5121469;28;19920;-77
2023/12/14 05:14:31;;;;;;;;;;;;;;;;;;5110804;28;20003;-78
2023/12/14 05:17:07;;;;;;;;;;;;;;;;;;5090919;28;20194;-78
2023/12/14 05:19:35;;;;;;;;;;;;;;;;;;5094470;28;19946;-78
2023/12/14 05:22:12;;;;;;;;;;;;;;;;;;5107491;28;19973;-78
2023/12/14 05:24:39;;;;;;;;;;;;;;;;;;5093580;28;19920;-77
2023/12/14 05:27:17;;;;;;;;;;;;;;;;;;5082723;28;19931;-78
2023/12/14 05:29:48;;;;;;;;;;;;;;;;;;5050953;28;19920;-78
2023/12/14 05:32:15;;;;;;;;;;;;;;;;;;5052547;28;20015;-78
2023/12/14 05:34:47;;;;;;;;;;;;;;;;;;5068733;28;19927;-79
2023/12/14 05:37:20;;;;;;;;;;;;;;;;;;5069104;28;20358;-78
2023/12/14 05:39:51;;;;;;;;;;;;;;;;;;5068020;28;19955;-79
2023/12/14 05:42:45;;;;;;;;;;;;;;;;;;5067486;28;20031;-77
2023/12/14 05:45:12;;;;;;;;;;;;;;;;;;5085104;28;19987;-79
2023/12/14 05:47:39;;;;;;;;;;;;;;;;;;5084817;28;20370;-77
2023/12/14 05:50:22;;;;;;;;;;;;;;;;;;5081888;28;20341;-77
2023/12/14 05:53:04;;;;;;;;;;;;;;;;;;5061201;28;20036;-77
2023/12/14 05:55:38;;;;;;;;;;;;;;;;;;5087766;28;19941;-79
2023/12/14 05:58:19;;;;;;;;;;;;;;;;;;5108889;27;20497;-78
2023/12/14 06:01:06;;;;;;;;;;;;;;;;;;5117470;27;19973;-78
2023/12/14 06:04:03;;;;;;;;;;;;;;;;;;5134197;27;19987;-78
2023/12/14 06:07:04;;;;;;;;;;;;;;;;;;5134525;27;20415;-78
2023/12/14 06:09:36;;;;;;;;;;;;;;;;;;5134431;27;19985;-78
2023/12/14 06:12:08;;;;;;;;;;;;;;;;;;5133893;27;20099;-78
2023/12/14 06:15:14;;;;;;;;;;;;;;;;;;5134521;27;19926;-78
2023/12/14 06:18:09;;;;;;;;;;;;;;;;;;5134988;27;20340;-79
2023/12/14 06:20:38;;;;;;;;;;;;;;;;;;5118092;27;19919;-78
2023/12/14 06:23:22;;;;;;;;;;;;;;;;;;5030482;28;19921;-78
2023/12/14 06:26:13;;;;;;;;;;;;;;;;;;5115148;27;20015;-78
2023/12/14 06:29:21;;;;;;;;;;;;;;;;;;5135239;27;19926;-79
2023/12/14 06:32:16;;;;;;;;;;;;;;;;;;5134559;27;20434;-78
2023/12/14 06:34:43;;;;;;;;;;;;;;;;;;5148240;27;19942;-77
2023/12/14 06:37:31;;;;;;;;;;;;;;;;;;5135808;27;19965;-78
2023/12/14 06:40:03;;;;;;;;;;;;;;;;;;5133304;27;20396;-78
2023/12/14 06:42:35;;;;;;;;;;;;;;;;;;5090965;28;19988;-78
2023/12/14 06:45:19;;;;;;;;;;;;;;;;;;5087631;28;19941;-78
2023/12/14 06:47:46;;;;;;;;;;;;;;;;;;5090959;28;19924;-78
2023/12/14 06:50:22;;;;;;;;;;;;;;;;;;5089038;28;20009;-78
2023/12/14 06:52:52;;;;;;;;;;;;;;;;;;5078529;28;19920;-78
2023/12/14 06:55:37;;;;;;;;;;;;;;;;;;5080263;28;19924;-78
2023/12/14 06:58:11;;;;;;;;;;;;;;;;;;5061559;28;19970;-77
2023/12/14 07:01:08;;;;;;;;;;;;;;;;;;5070946;28;19927;-78
2023/12/14 07:03:45;;;;;;;;;;;;;;;;;;5070414;28;19973;-78
2023/12/14 07:06:20;;;;;;;;;;;;;;;;;;5069161;28;19920;-79
2023/12/14 07:08:47;;;;;;;;;;;;;;;;;;5087405;28;19920;-78
2023/12/14 07:11:19;;;;;;;;;;;;;;;;;;5036878;28;20017;-81
2023/12/14 07:13:45;;;;;;;;;;;;;;;;;;5091233;28;19931;-77
2023/12/14 07:16:30;;;;;;;;;;;;;;;;;;5114699;28;20041;-78
2023/12/14 07:18:56;;;;;;;;;;;;;;;;;;5112384;28;19961;-81
2023/12/14 07:21:43;;;;;;;;;;;;;;;;;;5112732;28;19965;-77
2023/12/14 07:24:09;;;;;;;;;;;;;;;;;;5095795;28;19920;-77
2023/12/14 07:26:44;;;;;;;;;;;;;;;;;;5093197;28;19920;-78
2023/12/14 07:29:10;;;;;;;;;;;;;;;;;;5090781;28;19920;-78
2023/12/14 07:31:42;;;;;;;;;;;;;;;;;;5077029;28;19920;-78
2023/12/14 07:34:20;;;;;;;;;;;;;;;;;;5092263;28;19988;-78
2023/12/14 07:37:14;;;;;;;;;;;;;;;;;;5095030;28;19924;-77
2023/12/14 07:39:51;;;;;;;;;;;;;;;;;;5112991;27;20596;-77
2023/12/14 07:42:20;;;;;;;;;;;;;;;;;;5094001;28;20375;-77
2023/12/14 07:44:54;;;;;;;;;;;;;;;;;;5095717;28;19920;-78
2023/12/14 07:47:42;;;;;;;;;;;;;;;;;;5113372;28;19924;-79
2023/12/14 07:50:17;;;;;;;;;;;;;;;;;;5112767;28;20011;-78
2023/12/14 07:52:49;;;;;;;;;;;;;;;;;;5077932;28;20396;-80
2023/12/14 07:58:21;;;;;;;;;;;;;;;;;;5132092;27;19926;-81
2023/12/14 08:01:12;;;;;;;;;;;;;;;;;;5129656;27;19976;-81
2023/12/14 08:03:38;;;;;;;;;;;;;;;;;;5098630;27;19966;-81
2023/12/14 08:06:04;;;;;;;;;;;;;;;;;;5098458;27;19962;-81
2023/12/14 08:08:30;;;;;;;;;;;;;;;;;;5114735;27;19920;-79
2023/12/14 08:11:04;;;;;;;;;;;;;;;;;;5115330;27;19998;-79
2023/12/14 08:13:51;;;;;;;;;;;;;;;;;;5014789;28;19921;-79
2023/12/14 08:16:49;;;;;;;;;;;;;;;;;;5039768;28;20306;-79
2023/12/14 08:19:30;;;;;;;;;;;;;;;;;;5024419;28;19928;-79
2023/12/14 08:22:32;;;;;;;;;;;;;;;;;;5039729;28;19925;-79
2023/12/14 08:25:42;;;;;;;;;;;;;;;;;;5029639;28;20306;-79
2023/12/14 08:28:30;;;;;;;;;;;;;;;;;;5028379;28;19921;-79
2023/12/14 08:31:27;;;;;;;;;;;;;;;;;;5028278;28;19943;-78
2023/12/14 08:34:27;;;;;;;;;;;;;;;;;;5029536;28;19921;-79
2023/12/14 08:37:03;;;;;;;;;;;;;;;;;;5023358;28;19920;-83
2023/12/14 08:39:48;;;;;;;;;;;;;;;;;;5029233;28;19936;-79
2023/12/14 08:45:11;;;;;;;;;;;;;;;;;;5103116;27;19942;-81
2023/12/14 08:48:01;;;;;;;;;;;;;;;;;;5127266;27;19919;-80
2023/12/14 08:50:50;;;;;;;;;;;;;;;;;;5130505;27;19941;-80
2023/12/14 08:53:38;;;;;;;;;;;;;;;;;;5063075;27;20387;-80
2023/12/14 08:56:19;;;;;;;;;;;;;;;;;;5137490;27;19927;-79
2023/12/14 08:59:10;;;;;;;;;;;;;;;;;;5125046;27;19913;-82
2023/12/14 09:01:43;;;;;;;;;;;;;;;;;;5128176;27;19926;-80
2023/12/14 09:07:32;;;;;;;;;;;;;;;;;;5111254;28;20522;-80
2023/12/14 09:10:15;;;;;;;;;;;;;;;;;;5092624;28;19919;-79
2023/12/14 09:12:45;;;;;;;;;;;;;;;;;;5058310;28;20338;-81
2023/12/14 09:15:11;;;;;;;;;;;;;;;;;;5077377;28;19920;-80
2023/12/14 09:17:49;;;;;;;;;;;;;;;;;;5094416;28;19970;-79
2023/12/14 09:20:45;;;;;;;;;;;;;;;;;;5116797;28;19972;-79
2023/12/14 09:23:14;;;;;;;;;;;;;;;;;;5112876;27;20279;-79
2023/12/14 09:25:59;;;;;;;;;;;;;;;;;;5132478;27;19919;-80
2023/12/14 09:28:42;;;;;;;;;;;;;;;;;;5065397;28;19986;-80
2023/12/14 09:31:29;;;;;;;;;;;;;;;;;;5050331;28;19916;-80
2023/12/14 09:37:14;;;;;;;;;;;;;;;;;;5067663;28;19924;-81
2023/12/14 09:40:18;;;;;;;;;;;;;;;;;;5055180;28;20423;-80
2023/12/14 09:45:31;;;;;;;;;;;;;;;;;;5054202;28;19924;-80
2023/12/14 09:48:15;;;;;;;;;;;;;;;;;;5055348;28;19945;-80
2023/12/14 09:56:59;;;;;;;;;;;;;;;;;;5051905;28;19970;-81
2023/12/14 09:59:49;;;;;;;;;;;;;;;;;;5070846;28;19927;-81
2023/12/14 10:02:35;;;;;;;;;;;;;;;;;;5095702;28;19919;-80
2023/12/14 10:05:03;;;;;;;;;;;;;;;;;;5079797;28;19920;-80
2023/12/14 10:07:44;;;;;;;;;;;;;;;;;;5080221;28;19931;-80
2023/12/14 10:10:31;;;;;;;;;;;;;;;;;;5092119;27;19930;-80
2023/12/14 10:13:29;;;;;;;;;;;;;;;;;;5115081;27;20327;-80
2023/12/14 10:16:20;;;;;;;;;;;;;;;;;;5099348;28;19941;-82
2023/12/14 10:18:52;;;;;;;;;;;;;;;;;;5114858;27;20430;-80
2023/12/14 10:21:33;;;;;;;;;;;;;;;;;;5095776;28;20015;-79
2023/12/14 10:24:12;;;;;;;;;;;;;;;;;;5112228;28;19989;-79
2023/12/14 10:26:54;;;;;;;;;;;;;;;;;;5110922;28;19919;-80
2023/12/14 10:29:56;;;;;;;;;;;;;;;;;;5073358;28;19926;-79
2023/12/14 10:32:40;;;;;;;;;;;;;;;;;;5110024;28;19942;-79
2023/12/14 10:35:25;;;;;;;;;;;;;;;;;;5011183;28;20102;-79
2023/12/14 10:38:00;;;;;;;;;;;;;;;;;;5006884;28;19921;-79
2023/12/14 10:40:43;;;;;;;;;;;;;;;;;;5073996;28;19946;-79
2023/12/14 10:43:43;;;;;;;;;;;;;;;;;;5113451;28;19962;-79
2023/12/14 10:46:55;;;;;;;;;;;;;;;;;;5053385;28;19920;-80
2023/12/14 10:49:40;;;;;;;;;;;;;;;;;;5092138;28;20036;-78
2023/12/14 10:52:16;;;;;;;;;;;;;;;;;;5114341;28;19931;-80
2023/12/14 10:54:54;;;;;;;;;;;;;;;;;;5113620;28;19919;-76
2023/12/14 10:57:24;;;;;;;;;;;;;;;;;;5095492;28;19985;-79
2023/12/14 10:59:56;;;;;;;;;;;;;;;;;;5093225;28;20313;-81
2023/12/14 11:02:24;;;;;;;;;;;;;;;;;;5111522;28;20007;-81
2023/12/14 11:05:09;;;;;;;;;;;;;;;;;;5102760;27;19919;-80
2023/12/14 11:07:55;;;;;;;;;;;;;;;;;;5103980;28;19980;-80
2023/12/14 11:10:40;;;;;;;;;;;;;;;;;;5126155;27;19918;-80
2023/12/14 11:13:26;;;;;;;;;;;;;;;;;;5092530;28;19927;-84
2023/12/14 11:18:37;;;;;;;;;;;;;;;;;;5087790;28;19919;-79
2023/12/14 11:24:37;;;;;;;;;;;;;;;;;;5086963;28;19923;-80
2023/12/14 11:27:28;;;;;;;;;;;;;;;;;;5043917;28;19969;-80
2023/12/14 11:33:39;;;;;;;;;;;;;;;;;;5085355;28;20296;-80
2023/12/14 11:36:23;;;;;;;;;;;;;;;;;;5034821;28;19921;-80
2023/12/14 11:39:26;;;;;;;;;;;;;;;;;;5082881;28;19919;-80
2023/12/14 11:41:53;;;;;;;;;;;;;;;;;;5056878;28;19995;-81
2023/12/14 11:44:23;;;;;;;;;;;;;;;;;;5090123;28;20011;-82
2023/12/14 11:46:55;;;;;;;;;;;;;;;;;;5069018;28;19920;-81
2023/12/14 11:49:21;;;;;;;;;;;;;;;;;;5081345;28;20377;-83
2023/12/14 11:52:06;;;;;;;;;;;;;;;;;;5061477;28;20006;-80
2023/12/14 11:54:51;;;;;;;;;;;;;;;;;;5097508;28;19969;-80
2023/12/14 11:57:45;;;;;;;;;;;;;;;;;;5078866;27;19926;-80
2023/12/14 12:03:16;;;;;;;;;;;;;;;;;;5106200;28;19919;-79
2023/12/14 12:06:10;;;;;;;;;;;;;;;;;;5096866;28;19915;-79
2023/12/14 12:08:52;;;;;;;;;;;;;;;;;;5092754;28;19958;-80
2023/12/14 12:11:18;;;;;;;;;;;;;;;;;;5112784;28;19923;-80
2023/12/14 12:14:03;;;;;;;;;;;;;;;;;;5110123;28;19922;-80
2023/12/14 12:16:31;;;;;;;;;;;;;;;;;;5092442;28;19919;-81
2023/12/14 12:19:12;;;;;;;;;;;;;;;;;;5092732;28;19963;-81
2023/12/14 12:21:40;;;;;;;;;;;;;;;;;;5091338;28;19920;-78
2023/12/14 12:27:25;;;;;;;;;;;;;;;;;;5107757;28;19963;-80
2023/12/14 12:30:12;;;;;;;;;;;;;;;;;;5032892;28;20337;-79
2023/12/14 12:32:57;;;;;;;;;;;;;;;;;;5035015;28;20327;-79
2023/12/14 12:36:18;;;;;;;;;;;;;;;;;;4982883;28;20319;-79
2023/12/14 12:39:03;;;;;;;;;;;;;;;;;;4988291;28;20016;-79
2023/12/14 12:41:46;;;;;;;;;;;;;;;;;;4973586;28;20670;-79
2023/12/14 12:44:35;;;;;;;;;;;;;;;;;;4983635;28;19922;-81
2023/12/14 12:47:20;;;;;;;;;;;;;;;;;;5029157;28;19921;-79
2023/12/14 12:50:09;;;;;;;;;;;;;;;;;;5058032;28;20344;-79
2023/12/14 12:52:48;;;;;;;;;;;;;;;;;;5055098;28;20337;-77
2023/12/14 12:55:51;;;;;;;;;;;;;;;;;;5068440;28;19946;-78
2023/12/14 12:58:41;;;;;;;;;;;;;;;;;;5059622;28;20333;-79
2023/12/14 13:01:13;;;;;;;;;;;;;;;;;;5079323;28;19927;-79
2023/12/14 13:03:59;;;;;;;;;;;;;;;;;;5055237;28;19921;-80
2023/12/14 13:06:28;;;;;;;;;;;;;;;;;;5083509;28;19930;-80
2023/12/14 13:08:54;;;;;;;;;;;;;;;;;;5091063;28;19958;-79
2023/12/14 13:11:29;;;;;;;;;;;;;;;;;;5125682;28;19927;-82
2023/12/14 13:14:08;;;;;;;;;;;;;;;;;;5107210;28;19920;-79
2023/12/14 13:16:58;;;;;;;;;;;;;;;;;;5104898;28;19930;-79
2023/12/14 13:19:31;;;;;;;;;;;;;;;;;;5098328;28;20372;-80
2023/12/14 13:22:19;;;;;;;;;;;;;;;;;;5077447;28;19964;-79
2023/12/14 13:24:51;;;;;;;;;;;;;;;;;;5083967;28;19962;-79
2023/12/14 13:27:26;;;;;;;;;;;;;;;;;;5095799;28;19919;-79
2023/12/14 13:30:10;;;;;;;;;;;;;;;;;;5127813;28;19919;-79
2023/12/14 13:32:46;;;;;;;;;;;;;;;;;;5128359;28;19923;-79
2023/12/14 13:35:18;;;;;;;;;;;;;;;;;;5128849;28;19962;-79
2023/12/14 13:38:03;;;;;;;;;;;;;;;;;;5129746;28;19914;-79
2023/12/14 13:40:30;;;;;;;;;;;;;;;;;;5095276;28;20366;-79
2023/12/14 13:42:59;;;;;;;;;;;;;;;;;;5081023;28;20376;-78
2023/12/14 13:45:47;;;;;;;;;;;;;;;;;;5080253;28;19926;-79
2023/12/14 13:48:32;;;;;;;;;;;;;;;;;;5110355;28;19915;-78
2023/12/14 13:51:18;;;;;;;;;;;;;;;;;;5097619;28;19961;-79
2023/12/14 13:54:08;;;;;;;;;;;;;;;;;;5092178;28;20510;-79
2023/12/14 13:56:53;;;;;;;;;;;;;;;;;;5111233;27;19926;-80
2023/12/14 13:59:39;;;;;;;;;;;;;;;;;;5125154;28;20041;-79
2023/12/14 14:02:13;;;;;;;;;;;;;;;;;;5114004;28;20423;-79
2023/12/14 14:04:49;;;;;;;;;;;;;;;;;;5131157;28;20061;-78
2023/12/14 14:07:35;;;;;;;;;;;;;;;;;;5129736;28;19942;-79
2023/12/14 14:10:25;;;;;;;;;;;;;;;;;;5131627;28;19966;-79
2023/12/14 14:13:13;;;;;;;;;;;;;;;;;;5131309;28;19914;-78
2023/12/14 14:15:57;;;;;;;;;;;;;;;;;;5131256;28;20484;-78
2023/12/14 14:18:42;;;;;;;;;;;;;;;;;;5077435;27;19968;-78
2023/12/14 14:21:20;;;;;;;;;;;;;;;;;;5135049;27;19923;-79
2023/12/14 14:23:50;;;;;;;;;;;;;;;;;;5149350;27;19919;-79
2023/12/14 14:26:37;;;;;;;;;;;;;;;;;;5132430;27;19930;-79
2023/12/14 14:29:03;;;;;;;;;;;;;;;;;;5130838;27;19923;-78
2023/12/14 14:31:33;;;;;;;;;;;;;;;;;;5082380;27;19926;-79
2023/12/14 14:34:14;;;;;;;;;;;;;;;;;;5133669;27;19983;-79
2023/12/14 14:37:14;;;;;;;;;;;;;;;;;;5112422;28;19919;-78
2023/12/14 14:39:59;;;;;;;;;;;;;;;;;;5124605;27;20056;-78
2023/12/14 14:42:43;;;;;;;;;;;;;;;;;;5133751;27;19915;-79
2023/12/14 14:45:32;;;;;;;;;;;;;;;;;;5135923;27;19919;-78
2023/12/14 14:48:26;;;;;;;;;;;;;;;;;;5134879;27;19923;-79
2023/12/14 14:51:30;;;;;;;;;;;;;;;;;;5135513;27;19927;-79
2023/12/14 14:54:05;;;;;;;;;;;;;;;;;;5134276;27;19919;-79
2023/12/14 14:56:40;;;;;;;;;;;;;;;;;;5133534;27;19965;-79
2023/12/14 14:59:30;;;;;;;;;;;;;;;;;;5135671;27;19995;-78
2023/12/14 15:02:15;;;;;;;;;;;;;;;;;;5114735;27;19919;-79
2023/12/14 15:05:12;;;;;;;;;;;;;;;;;;5135295;27;19919;-79
2023/12/14 15:07:59;;;;;;;;;;;;;;;;;;5081212;27;19923;-78
2023/12/14 15:10:40;;;;;;;;;;;;;;;;;;5135054;27;19926;-81
2023/12/14 15:13:22;;;;;;;;;;;;;;;;;;5105287;28;20365;-79
2023/12/14 15:16:06;;;;;;;;;;;;;;;;;;5048585;28;19923;-80
2023/12/14 15:21:29;;;;;;;;;;;;;;;;;;5091344;28;20014;-79
2023/12/14 15:24:08;;;;;;;;;;;;;;;;;;5054818;28;20407;-79
2023/12/14 15:26:48;;;;;;;;;;;;;;;;;;5108319;28;19927;-79
2023/12/14 15:29:32;;;;;;;;;;;;;;;;;;5089627;28;20416;-79
2023/12/14 15:32:08;;;;;;;;;;;;;;;;;;5089949;28;19935;-80
2023/12/14 15:34:49;;;;;;;;;;;;;;;;;;5067418;28;20361;-79
2023/12/14 15:37:35;;;;;;;;;;;;;;;;;;5070802;28;20261;-79
2023/12/14 15:40:40;;;;;;;;;;;;;;;;;;5090639;28;19950;-79
2023/12/14 15:43:33;;;;;;;;;;;;;;;;;;5079282;27;19969;-79
2023/12/14 15:46:14;;;;;;;;;;;;;;;;;;5098799;27;19934;-79
2023/12/14 15:49:07;;;;;;;;;;;;;;;;;;5126980;27;19941;-79
2023/12/14 15:51:42;;;;;;;;;;;;;;;;;;5115335;27;19920;-80
2023/12/14 15:54:12;;;;;;;;;;;;;;;;;;5095594;27;19985;-80
2023/12/14 15:56:56;;;;;;;;;;;;;;;;;;5132093;27;19927;-80
2023/12/14 15:59:40;;;;;;;;;;;;;;;;;;5145722;27;19915;-79
2023/12/14 16:02:06;;;;;;;;;;;;;;;;;;5110509;27;20463;-80
2023/12/14 16:07:41;;;;;;;;;;;;;;;;;;5110796;27;19923;-79
2023/12/14 16:10:11;;;;;;;;;;;;;;;;;;5132452;27;19998;-79
2023/12/14 16:12:39;;;;;;;;;;;;;;;;;;5114433;27;19958;-79
2023/12/14 16:15:14;;;;;;;;;;;;;;;;;;5132537;27;19941;-79
2023/12/14 16:17:42;;;;;;;;;;;;;;;;;;5129586;27;20372;-79
2023/12/14 16:20:12;;;;;;;;;;;;;;;;;;5133059;27;19978;-79
2023/12/14 16:22:41;;;;;;;;;;;;;;;;;;5118874;27;19919;-79
2023/12/14 16:25:10;;;;;;;;;;;;;;;;;;5130392;27;20378;-79
2023/12/14 16:27:36;;;;;;;;;;;;;;;;;;5112611;27;19919;-80
2023/12/14 16:30:03;;;;;;;;;;;;;;;;;;5132176;27;19920;-79
2023/12/14 16:32:47;;;;;;;;;;;;;;;;;;5119920;27;19962;-80
2023/12/14 16:35:22;;;;;;;;;;;;;;;;;;5131805;27;19926;-80
2023/12/14 16:37:48;;;;;;;;;;;;;;;;;;5083793;28;19924;-82
2023/12/14 16:40:29;;;;;;;;;;;;;;;;;;5088219;28;20405;-83
2023/12/14 16:42:55;;;;;;;;;;;;;;;;;;5061986;28;19965;-79
2023/12/14 16:45:21;;;;;;;;;;;;;;;;;;5075582;28;19924;-79
2023/12/14 16:47:47;;;;;;;;;;;;;;;;;;5052435;28;20369;-79
2023/12/14 16:50:13;;;;;;;;;;;;;;;;;;5065571;28;19920;-78
2023/12/14 16:52:42;;;;;;;;;;;;;;;;;;5060706;28;19967;-78
2023/12/14 16:55:08;;;;;;;;;;;;;;;;;;5070913;28;19963;-78
2023/12/14 16:57:35;;;;;;;;;;;;;;;;;;5059510;28;19924;-78
2023/12/14 17:00:04;;;;;;;;;;;;;;;;;;5087847;28;19920;-78
2023/12/14 17:02:51;;;;;;;;;;;;;;;;;;5084277;28;19995;-79
2023/12/14 17:05:17;;;;;;;;;;;;;;;;;;5051439;28;19982;-79
2023/12/14 17:07:43;;;;;;;;;;;;;;;;;;5059429;28;19921;-79
2023/12/14 17:10:34;;;;;;;;;;;;;;;;;;5108736;28;19969;-79
2023/12/14 17:13:12;;;;;;;;;;;;;;;;;;5095109;28;19923;-78
2023/12/14 17:15:43;;;;;;;;;;;;;;;;;;5111858;28;19949;-78
2023/12/14 17:18:11;;;;;;;;;;;;;;;;;;5093039;28;19920;-79
2023/12/14 17:20:55;;;;;;;;;;;;;;;;;;5095789;28;20379;-79
2023/12/14 17:23:39;;;;;;;;;;;;;;;;;;5095811;28;19998;-79
2023/12/14 17:26:06;;;;;;;;;;;;;;;;;;5110930;28;19919;-79
2023/12/14 17:28:50;;;;;;;;;;;;;;;;;;5075832;28;19919;-79
2023/12/14 17:37:29;;;;;;;;;;;;;;;;;;5102871;28;19972;-77
2023/12/14 17:39:55;;;;;;;;;;;;;;;;;;5106532;28;19936;-81
2023/12/14 17:42:22;;;;;;;;;;;;;;;;;;5076457;28;19923;-77
2023/12/14 17:44:48;;;;;;;;;;;;;;;;;;5092723;28;19969;-78
2023/12/14 17:47:14;;;;;;;;;;;;;;;;;;5093269;28;20008;-77
2023/12/14 17:49:40;;;;;;;;;;;;;;;;;;5076591;28;20303;-77
2023/12/14 17:52:07;;;;;;;;;;;;;;;;;;5092505;28;20428;-78
2023/12/14 17:54:32;;;;;;;;;;;;;;;;;;5080021;28;20015;-78
2023/12/14 17:56:59;;;;;;;;;;;;;;;;;;5114636;28;20369;-79
2023/12/14 17:59:31;;;;;;;;;;;;;;;;;;5129877;27;19920;-78
2023/12/14 18:02:01;;;;;;;;;;;;;;;;;;5096913;28;20249;-78
2023/12/14 18:04:34;;;;;;;;;;;;;;;;;;5113520;28;20114;-78
2023/12/14 18:07:00;;;;;;;;;;;;;;;;;;5090753;28;20278;-78
2023/12/14 18:09:26;;;;;;;;;;;;;;;;;;5080472;28;19976;-80
2023/12/14 18:11:52;;;;;;;;;;;;;;;;;;5114286;28;19923;-76
2023/12/14 18:14:18;;;;;;;;;;;;;;;;;;5095754;28;19931;-76
2023/12/14 18:16:47;;;;;;;;;;;;;;;;;;5096863;28;19928;-78
2023/12/14 18:19:13;;;;;;;;;;;;;;;;;;5112386;28;19927;-77
2023/12/14 18:21:41;;;;;;;;;;;;;;;;;;5079898;28;19920;-76
2023/12/14 18:24:07;;;;;;;;;;;;;;;;;;5113960;28;20369;-78
2023/12/14 18:26:33;;;;;;;;;;;;;;;;;;5097135;28;20409;-76
2023/12/14 18:28:59;;;;;;;;;;;;;;;;;;5111990;28;20034;-78
2023/12/14 18:31:25;;;;;;;;;;;;;;;;;;5067910;28;19930;-76
2023/12/14 18:33:52;;;;;;;;;;;;;;;;;;5095202;28;19926;-76
2023/12/14 18:36:18;;;;;;;;;;;;;;;;;;5065162;28;20078;-78
2023/12/14 18:38:44;;;;;;;;;;;;;;;;;;5058257;27;19974;-77
2023/12/14 18:41:10;;;;;;;;;;;;;;;;;;5100140;27;20273;-76
2023/12/14 18:43:42;;;;;;;;;;;;;;;;;;5111762;28;19927;-77
2023/12/14 18:46:08;;;;;;;;;;;;;;;;;;5077547;28;20308;-77